sensor_id;sensor_type;location;lat;lon;timestamp;temperature;humidity
17659;DHT22;8948;51.534;8.262;2023-05-07T00:00:42;16.10;69.60
17659;DHT22;8948;51.534;8.262;2023-05-07T00:05:43;16.10;69.70
17659;DHT22;8948;51.534;8.262;2023-05-07T00:10:43;16.10;69.40
17659;DHT22;8948;51.534;8.262;2023-05-07T00:15:44;16.10;69.50
17659;DHT22;8948;51.534;8.262;2023-05-07T00:20:44;16.00;69.10
17659;DHT22;8948;51.534;8.262;2023-05-07T00:25:45;16.00;69.10
17659;DHT22;8948;51.534;8.262;2023-05-07T00:30:45;16.10;68.70
17659;DHT22;8948;51.534;8.262;2023-05-07T00:35:46;16.10;68.60
17659;DHT22;8948;51.534;8.262;2023-05-07T00:40:47;16.00;68.40
17659;DHT22;8948;51.534;8.262;2023-05-07T00:45:48;16.00;68.40
17659;DHT22;8948;51.534;8.262;2023-05-07T00:50:48;16.00;69.00
17659;DHT22;8948;51.534;8.262;2023-05-07T00:55:49;16.10;68.50
17659;DHT22;8948;51.534;8.262;2023-05-07T01:00:50;16.10;68.70
17659;DHT22;8948;51.534;8.262;2023-05-07T01:05:52;16.10;68.10
17659;DHT22;8948;51.534;8.262;2023-05-07T01:10:55;16.00;68.30
17659;DHT22;8948;51.534;8.262;2023-05-07T01:15:56;16.10;67.30
17659;DHT22;8948;51.534;8.262;2023-05-07T01:20:58;16.00;67.50
17659;DHT22;8948;51.534;8.262;2023-05-07T01:25:59;15.90;67.30
17659;DHT22;8948;51.534;8.262;2023-05-07T01:31:02;15.80;67.90
17659;DHT22;8948;51.534;8.262;2023-05-07T01:36:05;15.80;67.90
17659;DHT22;8948;51.534;8.262;2023-05-07T01:41:07;15.90;68.50
17659;DHT22;8948;51.534;8.262;2023-05-07T01:46:08;16.00;68.50
17659;DHT22;8948;51.534;8.262;2023-05-07T01:51:10;16.10;68.40
17659;DHT22;8948;51.534;8.262;2023-05-07T01:56:10;16.00;67.90
17659;DHT22;8948;51.534;8.262;2023-05-07T02:01:12;15.90;68.90
17659;DHT22;8948;51.534;8.262;2023-05-07T02:06:12;15.90;69.20
17659;DHT22;8948;51.534;8.262;2023-05-07T02:11:13;15.90;68.90
17659;DHT22;8948;51.534;8.262;2023-05-07T02:16:13;15.90;69.40
17659;DHT22;8948;51.534;8.262;2023-05-07T02:21:14;15.80;69.30
17659;DHT22;8948;51.534;8.262;2023-05-07T02:26:15;15.80;69.50
17659;DHT22;8948;51.534;8.262;2023-05-07T02:31:15;15.70;69.60
17659;DHT22;8948;51.534;8.262;2023-05-07T02:36:16;15.80;69.60
17659;DHT22;8948;51.534;8.262;2023-05-07T02:41:17;15.70;70.20
17659;DHT22;8948;51.534;8.262;2023-05-07T02:46:17;15.70;70.00
17659;DHT22;8948;51.534;8.262;2023-05-07T02:51:20;15.70;70.00
17659;DHT22;8948;51.534;8.262;2023-05-07T02:56:21;15.70;69.90
17659;DHT22;8948;51.534;8.262;2023-05-07T03:01:22;15.70;69.60
17659;DHT22;8948;51.534;8.262;2023-05-07T03:06:22;15.70;69.80
17659;DHT22;8948;51.534;8.262;2023-05-07T03:11:23;15.60;70.40
17659;DHT22;8948;51.534;8.262;2023-05-07T03:16:23;15.60;70.50
17659;DHT22;8948;51.534;8.262;2023-05-07T03:21:24;15.60;70.50
17659;DHT22;8948;51.534;8.262;2023-05-07T03:26:24;15.50;70.80
17659;DHT22;8948;51.534;8.262;2023-05-07T03:31:25;15.50;70.60
17659;DHT22;8948;51.534;8.262;2023-05-07T03:36:26;15.50;70.90
17659;DHT22;8948;51.534;8.262;2023-05-07T03:41:29;15.50;70.70
17659;DHT22;8948;51.534;8.262;2023-05-07T03:46:30;15.60;68.90
17659;DHT22;8948;51.534;8.262;2023-05-07T03:51:31;16.00;67.90
17659;DHT22;8948;51.534;8.262;2023-05-07T03:56:31;16.10;67.50
17659;DHT22;8948;51.534;8.262;2023-05-07T04:01:32;16.20;67.50
17659;DHT22;8948;51.534;8.262;2023-05-07T04:06:33;16.30;67.10
17659;DHT22;8948;51.534;8.262;2023-05-07T04:11:34;16.20;67.10
17659;DHT22;8948;51.534;8.262;2023-05-07T04:16:35;16.20;67.30
17659;DHT22;8948;51.534;8.262;2023-05-07T04:21:35;16.20;67.50
17659;DHT22;8948;51.534;8.262;2023-05-07T04:26:36;16.20;68.00
17659;DHT22;8948;51.534;8.262;2023-05-07T04:31:37;16.10;68.70
17659;DHT22;8948;51.534;8.262;2023-05-07T04:36:38;16.00;69.20
17659;DHT22;8948;51.534;8.262;2023-05-07T04:41:38;15.90;69.60
17659;DHT22;8948;51.534;8.262;2023-05-07T04:46:39;15.90;70.00
17659;DHT22;8948;51.534;8.262;2023-05-07T04:51:40;15.80;69.90
17659;DHT22;8948;51.534;8.262;2023-05-07T04:56:43;15.80;70.10
17659;DHT22;8948;51.534;8.262;2023-05-07T05:01:43;15.80;69.90
17659;DHT22;8948;51.534;8.262;2023-05-07T05:06:44;15.80;69.60
17659;DHT22;8948;51.534;8.262;2023-05-07T05:11:45;15.70;70.80
17659;DHT22;8948;51.534;8.262;2023-05-07T05:16:45;15.70;71.30
17659;DHT22;8948;51.534;8.262;2023-05-07T05:21:46;15.70;71.50
17659;DHT22;8948;51.534;8.262;2023-05-07T05:26:46;15.70;71.50
17659;DHT22;8948;51.534;8.262;2023-05-07T05:31:47;15.70;72.10
17659;DHT22;8948;51.534;8.262;2023-05-07T05:36:48;15.70;71.20
17659;DHT22;8948;51.534;8.262;2023-05-07T05:41:49;15.80;71.20
17659;DHT22;8948;51.534;8.262;2023-05-07T05:46:49;15.90;71.00
17659;DHT22;8948;51.534;8.262;2023-05-07T05:51:50;16.10;71.10
17659;DHT22;8948;51.534;8.262;2023-05-07T05:56:51;16.10;71.10
17659;DHT22;8948;51.534;8.262;2023-05-07T06:01:51;16.30;70.40
17659;DHT22;8948;51.534;8.262;2023-05-07T06:06:52;16.40;70.50
17659;DHT22;8948;51.534;8.262;2023-05-07T06:11:52;16.40;69.60
17659;DHT22;8948;51.534;8.262;2023-05-07T06:16:53;16.50;69.00
17659;DHT22;8948;51.534;8.262;2023-05-07T06:21:54;16.60;69.40
17659;DHT22;8948;51.534;8.262;2023-05-07T06:26:56;16.50;69.20
17659;DHT22;8948;51.534;8.262;2023-05-07T06:32:06;16.50;69.20
17659;DHT22;8948;51.534;8.262;2023-05-07T06:37:08;16.50;69.00
17659;DHT22;8948;51.534;8.262;2023-05-07T06:42:08;16.60;69.60
17659;DHT22;8948;51.534;8.262;2023-05-07T06:47:09;16.70;69.20
17659;DHT22;8948;51.534;8.262;2023-05-07T06:52:09;16.90;68.50
17659;DHT22;8948;51.534;8.262;2023-05-07T06:57:10;17.00;67.80
17659;DHT22;8948;51.534;8.262;2023-05-07T07:02:11;17.10;67.80
17659;DHT22;8948;51.534;8.262;2023-05-07T07:07:11;17.20;66.90
17659;DHT22;8948;51.534;8.262;2023-05-07T07:12:12;17.10;67.20
17659;DHT22;8948;51.534;8.262;2023-05-07T07:17:12;17.20;67.60
17659;DHT22;8948;51.534;8.262;2023-05-07T07:22:13;17.30;67.30
17659;DHT22;8948;51.534;8.262;2023-05-07T07:27:13;17.40;67.80
17659;DHT22;8948;51.534;8.262;2023-05-07T07:32:14;17.50;67.60
17659;DHT22;8948;51.534;8.262;2023-05-07T07:37:14;17.70;67.60
17659;DHT22;8948;51.534;8.262;2023-05-07T07:42:15;17.80;66.40
17659;DHT22;8948;51.534;8.262;2023-05-07T07:47:15;17.90;65.80
17659;DHT22;8948;51.534;8.262;2023-05-07T07:52:16;18.00;66.10
17659;DHT22;8948;51.534;8.262;2023-05-07T07:57:16;18.30;65.70
17659;DHT22;8948;51.534;8.262;2023-05-07T08:02:17;18.60;64.90
17659;DHT22;8948;51.534;8.262;2023-05-07T08:07:18;18.80;65.60
17659;DHT22;8948;51.534;8.262;2023-05-07T08:12:21;19.00;63.30
17659;DHT22;8948;51.534;8.262;2023-05-07T08:17:21;18.90;64.60
17659;DHT22;8948;51.534;8.262;2023-05-07T08:22:22;19.00;64.70
17659;DHT22;8948;51.534;8.262;2023-05-07T08:27:23;19.10;64.80
17659;DHT22;8948;51.534;8.262;2023-05-07T08:32:23;19.10;64.20
17659;DHT22;8948;51.534;8.262;2023-05-07T08:37:24;19.10;65.20
17659;DHT22;8948;51.534;8.262;2023-05-07T08:42:25;19.00;64.40
17659;DHT22;8948;51.534;8.262;2023-05-07T08:47:29;19.00;65.40
17659;DHT22;8948;51.534;8.262;2023-05-07T08:52:33;19.10;63.80
17659;DHT22;8948;51.534;8.262;2023-05-07T08:57:34;19.30;63.10
17659;DHT22;8948;51.534;8.262;2023-05-07T09:02:35;19.40;64.90
17659;DHT22;8948;51.534;8.262;2023-05-07T09:07:36;19.70;63.10
17659;DHT22;8948;51.534;8.262;2023-05-07T09:12:37;20.20;62.10
17659;DHT22;8948;51.534;8.262;2023-05-07T09:17:38;20.60;63.00
17659;DHT22;8948;51.534;8.262;2023-05-07T09:22:39;21.10;59.80
17659;DHT22;8948;51.534;8.262;2023-05-07T09:27:41;21.10;58.90
17659;DHT22;8948;51.534;8.262;2023-05-07T09:32:42;21.30;59.20
17659;DHT22;8948;51.534;8.262;2023-05-07T09:37:43;21.80;60.60
17659;DHT22;8948;51.534;8.262;2023-05-07T09:42:44;21.70;59.40
17659;DHT22;8948;51.534;8.262;2023-05-07T09:47:44;21.90;57.70
17659;DHT22;8948;51.534;8.262;2023-05-07T09:52:45;22.10;60.90
17659;DHT22;8948;51.534;8.262;2023-05-07T09:57:49;22.60;59.90
17659;DHT22;8948;51.534;8.262;2023-05-07T10:02:52;22.60;57.40
17659;DHT22;8948;51.534;8.262;2023-05-07T10:07:53;22.70;57.00
17659;DHT22;8948;51.534;8.262;2023-05-07T10:12:54;22.70;56.80
17659;DHT22;8948;51.534;8.262;2023-05-07T10:17:55;22.90;55.50
17659;DHT22;8948;51.534;8.262;2023-05-07T10:22:57;22.90;56.40
17659;DHT22;8948;51.534;8.262;2023-05-07T10:28:02;22.90;57.40
17659;DHT22;8948;51.534;8.262;2023-05-07T10:33:05;23.10;54.40
17659;DHT22;8948;51.534;8.262;2023-05-07T10:38:08;23.10;55.60
17659;DHT22;8948;51.534;8.262;2023-05-07T10:43:09;23.30;55.40
17659;DHT22;8948;51.534;8.262;2023-05-07T10:48:11;23.20;55.00
17659;DHT22;8948;51.534;8.262;2023-05-07T11:03:22;23.70;53.50
17659;DHT22;8948;51.534;8.262;2023-05-07T11:08:22;23.90;54.00
17659;DHT22;8948;51.534;8.262;2023-05-07T11:13:43;23.50;53.90
17659;DHT22;8948;51.534;8.262;2023-05-07T11:18:50;23.50;53.30
17659;DHT22;8948;51.534;8.262;2023-05-07T11:28:52;23.30;54.80
17659;DHT22;8948;51.534;8.262;2023-05-07T11:33:54;23.30;53.50
17659;DHT22;8948;51.534;8.262;2023-05-07T11:38:55;23.80;55.30
17659;DHT22;8948;51.534;8.262;2023-05-07T11:43:58;24.50;53.20
17659;DHT22;8948;51.534;8.262;2023-05-07T11:49:00;24.50;51.70
17659;DHT22;8948;51.534;8.262;2023-05-07T11:54:03;24.50;50.40
17659;DHT22;8948;51.534;8.262;2023-05-07T11:59:08;24.40;51.20
17659;DHT22;8948;51.534;8.262;2023-05-07T12:04:09;24.10;53.00
17659;DHT22;8948;51.534;8.262;2023-05-07T12:09:10;24.30;51.20
17659;DHT22;8948;51.534;8.262;2023-05-07T12:14:11;24.40;50.20
17659;DHT22;8948;51.534;8.262;2023-05-07T12:19:12;24.90;49.10
17659;DHT22;8948;51.534;8.262;2023-05-07T12:24:14;25.40;47.40
17659;DHT22;8948;51.534;8.262;2023-05-07T12:29:15;25.80;49.70
17659;DHT22;8948;51.534;8.262;2023-05-07T12:34:16;25.40;50.00
17659;DHT22;8948;51.534;8.262;2023-05-07T12:39:17;24.80;48.10
17659;DHT22;8948;51.534;8.262;2023-05-07T12:44:17;24.40;50.20
17659;DHT22;8948;51.534;8.262;2023-05-07T12:49:18;23.70;49.90
17659;DHT22;8948;51.534;8.262;2023-05-07T12:54:37;23.30;51.80
17659;DHT22;8948;51.534;8.262;2023-05-07T12:59:41;23.30;52.70
17659;DHT22;8948;51.534;8.262;2023-05-07T13:04:42;23.00;52.10
17659;DHT22;8948;51.534;8.262;2023-05-07T13:09:43;22.70;52.70
17659;DHT22;8948;51.534;8.262;2023-05-07T13:14:43;22.50;54.30
17659;DHT22;8948;51.534;8.262;2023-05-07T13:19:44;22.30;53.50
17659;DHT22;8948;51.534;8.262;2023-05-07T13:24:45;21.90;54.50
17659;DHT22;8948;51.534;8.262;2023-05-07T13:29:45;21.80;55.20
17659;DHT22;8948;51.534;8.262;2023-05-07T13:34:46;21.70;55.40
17659;DHT22;8948;51.534;8.262;2023-05-07T13:39:46;21.70;56.60
17659;DHT22;8948;51.534;8.262;2023-05-07T13:44:47;21.70;56.40
17659;DHT22;8948;51.534;8.262;2023-05-07T13:49:47;21.40;56.70
17659;DHT22;8948;51.534;8.262;2023-05-07T13:54:49;21.30;57.30
17659;DHT22;8948;51.534;8.262;2023-05-07T13:59:54;21.30;58.20
17659;DHT22;8948;51.534;8.262;2023-05-07T14:04:55;21.40;58.80
17659;DHT22;8948;51.534;8.262;2023-05-07T14:09:56;21.60;59.20
17659;DHT22;8948;51.534;8.262;2023-05-07T14:14:56;21.80;58.70
17659;DHT22;8948;51.534;8.262;2023-05-07T14:19:57;21.80;57.60
17659;DHT22;8948;51.534;8.262;2023-05-07T14:24:58;21.60;58.40
17659;DHT22;8948;51.534;8.262;2023-05-07T14:29:58;21.60;58.20
17659;DHT22;8948;51.534;8.262;2023-05-07T14:34:59;21.50;58.20
17659;DHT22;8948;51.534;8.262;2023-05-07T14:39:59;21.30;58.70
17659;DHT22;8948;51.534;8.262;2023-05-07T14:45:00;21.30;58.80
17659;DHT22;8948;51.534;8.262;2023-05-07T14:50:01;21.20;59.10
17659;DHT22;8948;51.534;8.262;2023-05-07T14:55:01;21.00;59.20
17659;DHT22;8948;51.534;8.262;2023-05-07T15:00:03;21.10;59.90
17659;DHT22;8948;51.534;8.262;2023-05-07T15:05:05;21.10;58.80
17659;DHT22;8948;51.534;8.262;2023-05-07T15:10:06;21.20;59.50
17659;DHT22;8948;51.534;8.262;2023-05-07T15:15:07;21.30;59.90
17659;DHT22;8948;51.534;8.262;2023-05-07T15:20:08;21.20;60.10
17659;DHT22;8948;51.534;8.262;2023-05-07T15:25:09;21.30;60.30
17659;DHT22;8948;51.534;8.262;2023-05-07T15:30:10;21.30;59.50
17659;DHT22;8948;51.534;8.262;2023-05-07T15:35:11;21.30;59.70
17659;DHT22;8948;51.534;8.262;2023-05-07T15:40:12;21.00;59.70
17659;DHT22;8948;51.534;8.262;2023-05-07T15:45:13;21.10;60.40
17659;DHT22;8948;51.534;8.262;2023-05-07T15:50:13;21.10;59.90
17659;DHT22;8948;51.534;8.262;2023-05-07T15:55:14;21.00;61.30
17659;DHT22;8948;51.534;8.262;2023-05-07T16:00:15;20.90;61.90
17659;DHT22;8948;51.534;8.262;2023-05-07T16:05:16;21.00;62.10
17659;DHT22;8948;51.534;8.262;2023-05-07T16:10:17;21.00;61.20
17659;DHT22;8948;51.534;8.262;2023-05-07T16:15:18;20.90;61.40
17659;DHT22;8948;51.534;8.262;2023-05-07T16:20:18;20.90;61.10
17659;DHT22;8948;51.534;8.262;2023-05-07T16:25:21;20.70;61.00
17659;DHT22;8948;51.534;8.262;2023-05-07T16:30:21;20.50;61.20
17659;DHT22;8948;51.534;8.262;2023-05-07T16:35:22;20.50;62.00
17659;DHT22;8948;51.534;8.262;2023-05-07T16:40:22;20.40;61.50
17659;DHT22;8948;51.534;8.262;2023-05-07T16:45:23;20.50;61.40
17659;DHT22;8948;51.534;8.262;2023-05-07T16:50:24;20.60;61.00
17659;DHT22;8948;51.534;8.262;2023-05-07T16:55:24;20.50;60.00
17659;DHT22;8948;51.534;8.262;2023-05-07T17:00:25;20.50;59.50
17659;DHT22;8948;51.534;8.262;2023-05-07T17:05:26;20.50;59.00
17659;DHT22;8948;51.534;8.262;2023-05-07T17:10:27;20.40;59.30
17659;DHT22;8948;51.534;8.262;2023-05-07T17:15:27;20.30;59.00
17659;DHT22;8948;51.534;8.262;2023-05-07T17:20:28;20.30;59.10
17659;DHT22;8948;51.534;8.262;2023-05-07T17:25:31;20.20;59.30
17659;DHT22;8948;51.534;8.262;2023-05-07T17:30:31;20.10;59.20
17659;DHT22;8948;51.534;8.262;2023-05-07T17:35:32;20.10;59.60
17659;DHT22;8948;51.534;8.262;2023-05-07T17:40:33;20.10;58.00
17659;DHT22;8948;51.534;8.262;2023-05-07T17:45:34;20.00;59.40
17659;DHT22;8948;51.534;8.262;2023-05-07T17:50:35;19.90;58.70
17659;DHT22;8948;51.534;8.262;2023-05-07T17:55:42;19.90;59.30
17659;DHT22;8948;51.534;8.262;2023-05-07T18:00:44;19.70;58.60
17659;DHT22;8948;51.534;8.262;2023-05-07T18:05:44;19.60;59.10
17659;DHT22;8948;51.534;8.262;2023-05-07T18:10:45;19.60;59.20
17659;DHT22;8948;51.534;8.262;2023-05-07T18:15:46;19.50;59.70
17659;DHT22;8948;51.534;8.262;2023-05-07T18:20:49;19.30;59.30
17659;DHT22;8948;51.534;8.262;2023-05-07T18:25:50;19.30;60.10
17659;DHT22;8948;51.534;8.262;2023-05-07T18:30:51;19.30;59.80
17659;DHT22;8948;51.534;8.262;2023-05-07T18:35:51;19.00;59.20
17659;DHT22;8948;51.534;8.262;2023-05-07T18:40:52;18.80;59.20
17659;DHT22;8948;51.534;8.262;2023-05-07T18:45:52;18.70;59.40
17659;DHT22;8948;51.534;8.262;2023-05-07T18:50:53;18.60;58.90
17659;DHT22;8948;51.534;8.262;2023-05-07T18:55:53;18.40;58.90
17659;DHT22;8948;51.534;8.262;2023-05-07T19:00:54;18.40;59.20
17659;DHT22;8948;51.534;8.262;2023-05-07T19:05:55;18.40;59.30
17659;DHT22;8948;51.534;8.262;2023-05-07T19:10:56;18.30;59.30
17659;DHT22;8948;51.534;8.262;2023-05-07T19:15:56;18.20;59.10
17659;DHT22;8948;51.534;8.262;2023-05-07T19:20:57;17.90;59.20
17659;DHT22;8948;51.534;8.262;2023-05-07T19:25:58;17.80;59.50
17659;DHT22;8948;51.534;8.262;2023-05-07T19:30:58;17.70;59.80
17659;DHT22;8948;51.534;8.262;2023-05-07T19:35:59;17.80;60.00
17659;DHT22;8948;51.534;8.262;2023-05-07T19:41:00;17.80;60.10
17659;DHT22;8948;51.534;8.262;2023-05-07T19:46:01;17.80;60.40
17659;DHT22;8948;51.534;8.262;2023-05-07T19:51:02;17.70;60.80
17659;DHT22;8948;51.534;8.262;2023-05-07T19:56:08;17.60;60.80
17659;DHT22;8948;51.534;8.262;2023-05-07T20:01:08;17.40;61.30
17659;DHT22;8948;51.534;8.262;2023-05-07T20:06:09;17.40;61.00
17659;DHT22;8948;51.534;8.262;2023-05-07T20:11:10;17.50;61.00
17659;DHT22;8948;51.534;8.262;2023-05-07T20:16:12;17.50;60.50
17659;DHT22;8948;51.534;8.262;2023-05-07T20:21:13;17.50;60.70
17659;DHT22;8948;51.534;8.262;2023-05-07T20:26:14;17.20;60.90
17659;DHT22;8948;51.534;8.262;2023-05-07T20:31:15;17.00;61.30
17659;DHT22;8948;51.534;8.262;2023-05-07T20:36:15;16.90;61.70
17659;DHT22;8948;51.534;8.262;2023-05-07T20:41:16;17.00;60.90
17659;DHT22;8948;51.534;8.262;2023-05-07T20:46:17;17.00;61.50
17659;DHT22;8948;51.534;8.262;2023-05-07T20:51:20;17.00;61.10
17659;DHT22;8948;51.534;8.262;2023-05-07T20:56:20;17.00;61.20
17659;DHT22;8948;51.534;8.262;2023-05-07T21:01:21;17.00;61.00
17659;DHT22;8948;51.534;8.262;2023-05-07T21:06:22;17.00;61.00
17659;DHT22;8948;51.534;8.262;2023-05-07T21:11:22;17.10;61.40
17659;DHT22;8948;51.534;8.262;2023-05-07T21:16:23;17.10;60.90
17659;DHT22;8948;51.534;8.262;2023-05-07T21:21:24;17.10;61.10
17659;DHT22;8948;51.534;8.262;2023-05-07T21:26:24;17.00;61.30
17659;DHT22;8948;51.534;8.262;2023-05-07T21:31:25;17.00;61.20
17659;DHT22;8948;51.534;8.262;2023-05-07T21:36:26;17.00;61.20
17659;DHT22;8948;51.534;8.262;2023-05-07T21:41:27;17.00;61.10
17659;DHT22;8948;51.534;8.262;2023-05-07T21:46:28;17.00;61.40
17659;DHT22;8948;51.534;8.262;2023-05-07T21:51:29;17.00;62.10
17659;DHT22;8948;51.534;8.262;2023-05-07T21:56:29;17.10;62.40
17659;DHT22;8948;51.534;8.262;2023-05-07T22:01:30;17.10;62.40
17659;DHT22;8948;51.534;8.262;2023-05-07T22:06:30;17.00;62.40
17659;DHT22;8948;51.534;8.262;2023-05-07T22:11:31;16.90;63.10
17659;DHT22;8948;51.534;8.262;2023-05-07T22:16:31;16.80;63.30
17659;DHT22;8948;51.534;8.262;2023-05-07T22:21:32;16.70;63.30
17659;DHT22;8948;51.534;8.262;2023-05-07T22:26:32;16.50;62.90
17659;DHT22;8948;51.534;8.262;2023-05-07T22:31:33;16.40;63.10
17659;DHT22;8948;51.534;8.262;2023-05-07T22:36:34;16.30;63.50
17659;DHT22;8948;51.534;8.262;2023-05-07T22:41:35;16.20;63.80
17659;DHT22;8948;51.534;8.262;2023-05-07T22:46:35;16.10;64.00
17659;DHT22;8948;51.534;8.262;2023-05-07T22:51:36;16.10;64.30
17659;DHT22;8948;51.534;8.262;2023-05-07T22:56:37;16.10;64.50
17659;DHT22;8948;51.534;8.262;2023-05-07T23:01:40;16.00;64.30
17659;DHT22;8948;51.534;8.262;2023-05-07T23:06:40;16.10;63.80
17659;DHT22;8948;51.534;8.262;2023-05-07T23:11:41;16.10;63.70
17659;DHT22;8948;51.534;8.262;2023-05-07T23:16:42;16.00;63.90
17659;DHT22;8948;51.534;8.262;2023-05-07T23:21:43;15.90;63.70
17659;DHT22;8948;51.534;8.262;2023-05-07T23:26:43;15.80;63.50
17659;DHT22;8948;51.534;8.262;2023-05-07T23:31:44;15.80;64.00
17659;DHT22;8948;51.534;8.262;2023-05-07T23:36:45;15.70;63.80
17659;DHT22;8948;51.534;8.262;2023-05-07T23:41:46;15.60;64.40
17659;DHT22;8948;51.534;8.262;2023-05-07T23:46:47;15.60;64.20
17659;DHT22;8948;51.534;8.262;2023-05-07T23:51:47;15.40;63.90
17659;DHT22;8948;51.534;8.262;2023-05-07T23:56:48;15.50;63.60
